DEVICE NETWORK
Gateway Status
13 ESP · realtime ~1s · history 60s
Weather
WS-MOD-01
ONLINE
Actuator
ACT-MOD-01
OFFLINE
Mainboard L3
MB-L3-01
ONLINE
Mainboard L5
MB-L5-01
ONLINE
Remote AC
AC-REMOTE-01
ONLINE
PZEM L3-01
PWR-L3-01
OFFLINE
PZEM L3-02
PWR-L3-02
OFFLINE
PZEM L3-03
PWR-L3-03
OFFLINE
PZEM L3-04
PWR-L3-04
OFFLINE
PZEM L5-01
PWR-L5-01
ONLINE
PZEM L5-02
PWR-L5-02
ONLINE
PZEM L5-03
PWR-L5-03
OFFLINE
PZEM L5-04
PWR-L5-04
OFFLINE
REPORT FILTER
DATABASE HISTORY
Periode & Sensor
REPORT RESULT
Data Sensor
31/08/2026 — 06/09/2026
EXPORT CSV
| NO | TANGGAL | WAKTU | DEVICE | CHANNEL | SENSOR | VALUE | UNIT |
|---|---|---|---|---|---|---|---|
| 12601 | 06/09/2026 | 18:32:00 | MB-L5-01Mainboard Lantai 5 | L5-LUX-04 | Illuminance / LUX 4 | 261.10 | lux |
| 12602 | 06/09/2026 | 18:32:00 | PWR-L5-03Power Meter L5 PZEM 03 | PZEM-L5-03-CURR | PZEM L5-03 Current | 0.00 | A |
| 12603 | 06/09/2026 | 18:32:00 | MB-L3-01Mainboard Lantai 3 | L3-AI-04 | Analog Input 4 | 3.12 | V |
| 12604 | 06/09/2026 | 18:32:00 | MB-L5-01Mainboard Lantai 5 | L5-SHT-02-T | SHT20 2 Temperature | 27.90 | °C |
| 12605 | 06/09/2026 | 18:32:00 | MB-L3-01Mainboard Lantai 3 | L3-SHT-01-RH | SHT20 1 Humidity | 42.80 | %RH |
| 12606 | 06/09/2026 | 18:31:00 | MB-L3-01Mainboard Lantai 3 | L3-RAD-02 | Radiation 2 | 1.00 | W/m² |
| 12607 | 06/09/2026 | 18:31:00 | PWR-L5-01Power Meter L5 PZEM 01 | PZEM-L5-01-ENERGY | PZEM L5-01 Energy | 0.01 | kWh |
| 12608 | 06/09/2026 | 18:31:00 | MB-L3-01Mainboard Lantai 3 | L3-LUX-05 | Illuminance / LUX 5 | 390.60 | lux |
| 12609 | 06/09/2026 | 18:31:00 | PWR-L5-03Power Meter L5 PZEM 03 | PZEM-L5-03-ENERGY | PZEM L5-03 Energy | 0.00 | kWh |
| 12610 | 06/09/2026 | 18:31:00 | MB-L3-01Mainboard Lantai 3 | L3-SHT-03-RH | SHT20 3 Humidity | 42.40 | %RH |
| 12611 | 06/09/2026 | 18:31:00 | MB-L5-01Mainboard Lantai 5 | L5-LUX-03 | Illuminance / LUX 3 | 394.70 | lux |
| 12612 | 06/09/2026 | 18:31:00 | WS-MOD-01Weather Station Module | WS-WIND | Kecepatan Angin | 6.82 | m/s |
| 12613 | 06/09/2026 | 18:31:00 | MB-L3-01Mainboard Lantai 3 | L3-LUX-04 | Illuminance / LUX 4 | 585.80 | lux |
| 12614 | 06/09/2026 | 18:31:00 | MB-L5-01Mainboard Lantai 5 | L5-SHT-03-T | SHT20 3 Temperature | 27.90 | °C |
| 12615 | 06/09/2026 | 18:31:00 | PWR-L5-01Power Meter L5 PZEM 01 | PZEM-L5-01-POWER | PZEM L5-01 Active Power | 10.00 | W |
| 12616 | 06/09/2026 | 18:31:00 | MB-L5-01Mainboard Lantai 5 | L5-LUX-01 | Illuminance / LUX 1 | 275.20 | lux |
| 12617 | 06/09/2026 | 18:31:00 | MB-L3-01Mainboard Lantai 3 | L3-SHT-01-T | SHT20 1 Temperature | 29.50 | °C |
| 12618 | 06/09/2026 | 18:31:00 | WS-MOD-01Weather Station Module | WS-PRES | Tekanan Udara | 910.00 | hPa |
| 12619 | 06/09/2026 | 18:31:00 | PWR-L5-01Power Meter L5 PZEM 01 | PZEM-L5-01-CURR | PZEM L5-01 Current | 0.12 | A |
| 12620 | 06/09/2026 | 18:31:00 | PWR-L5-03Power Meter L5 PZEM 03 | PZEM-L5-03-PF | PZEM L5-03 Power Factor | 0.00 | |
| 12621 | 06/09/2026 | 18:31:00 | PWR-L5-03Power Meter L5 PZEM 03 | PZEM-L5-03-POWER | PZEM L5-03 Active Power | 0.00 | W |
| 12622 | 06/09/2026 | 18:31:00 | MB-L3-01Mainboard Lantai 3 | L3-LUX-02 | Illuminance / LUX 2 | 615.50 | lux |
| 12623 | 06/09/2026 | 18:31:00 | MB-L5-01Mainboard Lantai 5 | L5-BGT-01 | Black Globe Temperature 1 | 27.60 | °C |
| 12624 | 06/09/2026 | 18:31:00 | MB-L5-01Mainboard Lantai 5 | L5-RAD-02 | Radiation 2 | 1.00 | W/m² |
| 12625 | 06/09/2026 | 18:31:00 | MB-L5-01Mainboard Lantai 5 | L5-SHT-01-T | SHT20 1 Temperature | 27.80 | °C |
| 12626 | 06/09/2026 | 18:31:00 | MB-L3-01Mainboard Lantai 3 | L3-LUX-01 | Illuminance / LUX 1 | 503.20 | lux |
| 12627 | 06/09/2026 | 18:31:00 | MB-L5-01Mainboard Lantai 5 | L5-ST-02 | Surface Temperature 2 | 25.80 | °C |
| 12628 | 06/09/2026 | 18:31:00 | MB-L3-01Mainboard Lantai 3 | L3-AI-01 | Analog Input 1 | 3.12 | V |
| 12629 | 06/09/2026 | 18:31:00 | MB-L3-01Mainboard Lantai 3 | L3-LUX-06 | Illuminance / LUX 6 | 540.30 | lux |
| 12630 | 06/09/2026 | 18:31:00 | MB-L5-01Mainboard Lantai 5 | L5-BGT-02 | Black Globe Temperature 2 | 27.60 | °C |
| 12631 | 06/09/2026 | 18:31:00 | MB-L5-01Mainboard Lantai 5 | L5-ST-01 | Surface Temperature 1 | 26.30 | °C |
| 12632 | 06/09/2026 | 18:31:00 | PWR-L5-01Power Meter L5 PZEM 01 | PZEM-L5-01-VOLT | PZEM L5-01 Voltage | 221.40 | V |
| 12633 | 06/09/2026 | 18:31:00 | MB-L5-01Mainboard Lantai 5 | L5-HFT-01 | Heat Flow Temperature 1 | 26.30 | °C |
| 12634 | 06/09/2026 | 18:31:00 | MB-L5-01Mainboard Lantai 5 | L5-SHT-02-RH | SHT20 2 Humidity | 45.30 | %RH |
| 12635 | 06/09/2026 | 18:31:00 | WS-MOD-01Weather Station Module | WS-TEMP | Suhu Udara | 22.50 | °C |
| 12636 | 06/09/2026 | 18:31:00 | MB-L3-01Mainboard Lantai 3 | L3-AI-02 | Analog Input 2 | 3.12 | V |
| 12637 | 06/09/2026 | 18:31:00 | MB-L5-01Mainboard Lantai 5 | L5-BGT-03 | Black Globe Temperature 3 | 27.70 | °C |
| 12638 | 06/09/2026 | 18:31:00 | MB-L5-01Mainboard Lantai 5 | L5-LUX-06 | Illuminance / LUX 6 | 275.40 | lux |
| 12639 | 06/09/2026 | 18:31:00 | MB-L5-01Mainboard Lantai 5 | L5-HFT-02 | Heat Flow Temperature 2 | 25.80 | °C |
| 12640 | 06/09/2026 | 18:31:00 | MB-L5-01Mainboard Lantai 5 | L5-AI-01 | Analog Input 1 | 3.05 | V |
| 12641 | 06/09/2026 | 18:31:00 | MB-L5-01Mainboard Lantai 5 | L5-LUX-05 | Illuminance / LUX 5 | 185.00 | lux |
| 12642 | 06/09/2026 | 18:31:00 | WS-MOD-01Weather Station Module | WS-DIR | Arah Angin | 188.80 | ° |
| 12643 | 06/09/2026 | 18:31:00 | MB-L5-01Mainboard Lantai 5 | L5-AI-02 | Analog Input 2 | 3.05 | V |
| 12644 | 06/09/2026 | 18:31:00 | MB-L3-01Mainboard Lantai 3 | L3-AI-03 | Analog Input 3 | 3.12 | V |
| 12645 | 06/09/2026 | 18:31:00 | MB-L3-01Mainboard Lantai 3 | L3-SHT-02-RH | SHT20 2 Humidity | 42.10 | %RH |
| 12646 | 06/09/2026 | 18:31:00 | MB-L5-01Mainboard Lantai 5 | L5-LUX-02 | Illuminance / LUX 2 | 174.10 | lux |
| 12647 | 06/09/2026 | 18:31:00 | MB-L3-01Mainboard Lantai 3 | L3-SHT-02-T | SHT20 2 Temperature | 29.80 | °C |
| 12648 | 06/09/2026 | 18:31:00 | PWR-L5-03Power Meter L5 PZEM 03 | PZEM-L5-03-FREQ | PZEM L5-03 Frequency | 0.00 | Hz |
| 12649 | 06/09/2026 | 18:31:00 | PWR-L5-01Power Meter L5 PZEM 01 | PZEM-L5-01-PF | PZEM L5-01 Power Factor | 0.39 | |
| 12650 | 06/09/2026 | 18:31:00 | MB-L5-01Mainboard Lantai 5 | L5-AI-03 | Analog Input 3 | 3.05 | V |
| 12651 | 06/09/2026 | 18:31:00 | MB-L5-01Mainboard Lantai 5 | L5-LUX-04 | Illuminance / LUX 4 | 261.40 | lux |
| 12652 | 06/09/2026 | 18:31:00 | PWR-L5-03Power Meter L5 PZEM 03 | PZEM-L5-03-CURR | PZEM L5-03 Current | 0.00 | A |
| 12653 | 06/09/2026 | 18:31:00 | MB-L3-01Mainboard Lantai 3 | L3-AI-04 | Analog Input 4 | 3.12 | V |
| 12654 | 06/09/2026 | 18:31:00 | MB-L5-01Mainboard Lantai 5 | L5-SHT-02-T | SHT20 2 Temperature | 27.90 | °C |
| 12655 | 06/09/2026 | 18:31:00 | MB-L3-01Mainboard Lantai 3 | L3-SHT-01-RH | SHT20 1 Humidity | 42.70 | %RH |
| 12656 | 06/09/2026 | 18:31:00 | MB-L5-01Mainboard Lantai 5 | L5-AI-04 | Analog Input 4 | 3.05 | V |
| 12657 | 06/09/2026 | 18:31:00 | MB-L5-01Mainboard Lantai 5 | L5-RAD-01 | Radiation 1 | 1.00 | W/m² |
| 12658 | 06/09/2026 | 18:31:00 | MB-L3-01Mainboard Lantai 3 | L3-RAD-01 | Radiation 1 | 1.00 | W/m² |
| 12659 | 06/09/2026 | 18:31:00 | MB-L3-01Mainboard Lantai 3 | L3-AI-05 | Analog Input 5 | 3.12 | V |
| 12660 | 06/09/2026 | 18:31:00 | MB-L5-01Mainboard Lantai 5 | L5-SHT-03-RH | SHT20 3 Humidity | 45.60 | %RH |
| 12661 | 06/09/2026 | 18:31:00 | MB-L5-01Mainboard Lantai 5 | L5-AI-05 | Analog Input 5 | 3.05 | V |
| 12662 | 06/09/2026 | 18:31:00 | PWR-L5-01Power Meter L5 PZEM 01 | PZEM-L5-01-FREQ | PZEM L5-01 Frequency | 50.00 | Hz |
| 12663 | 06/09/2026 | 18:31:00 | MB-L3-01Mainboard Lantai 3 | L3-SHT-03-T | SHT20 3 Temperature | 29.80 | °C |
| 12664 | 06/09/2026 | 18:31:00 | MB-L5-01Mainboard Lantai 5 | L5-AI-06 | Analog Input 6 | 3.05 | V |
| 12665 | 06/09/2026 | 18:31:00 | MB-L3-01Mainboard Lantai 3 | L3-LUX-03 | Illuminance / LUX 3 | 734.40 | lux |
| 12666 | 06/09/2026 | 18:31:00 | WS-MOD-01Weather Station Module | WS-RH | Kelembapan Udara | 67.90 | %RH |
| 12667 | 06/09/2026 | 18:31:00 | MB-L3-01Mainboard Lantai 3 | L3-AI-06 | Analog Input 6 | 3.12 | V |
| 12668 | 06/09/2026 | 18:31:00 | MB-L5-01Mainboard Lantai 5 | L5-SHT-01-RH | SHT20 1 Humidity | 45.70 | %RH |
| 12669 | 06/09/2026 | 18:30:00 | MB-L3-01Mainboard Lantai 3 | L3-SHT-01-T | SHT20 1 Temperature | 29.60 | °C |
| 12670 | 06/09/2026 | 18:30:00 | MB-L3-01Mainboard Lantai 3 | L3-LUX-02 | Illuminance / LUX 2 | 615.30 | lux |
| 12671 | 06/09/2026 | 18:30:00 | MB-L3-01Mainboard Lantai 3 | L3-LUX-01 | Illuminance / LUX 1 | 503.00 | lux |
| 12672 | 06/09/2026 | 18:30:00 | MB-L3-01Mainboard Lantai 3 | L3-AI-01 | Analog Input 1 | 3.12 | V |
| 12673 | 06/09/2026 | 18:30:00 | MB-L3-01Mainboard Lantai 3 | L3-LUX-06 | Illuminance / LUX 6 | 540.30 | lux |
| 12674 | 06/09/2026 | 18:30:00 | MB-L3-01Mainboard Lantai 3 | L3-AI-02 | Analog Input 2 | 3.12 | V |
| 12675 | 06/09/2026 | 18:30:00 | MB-L3-01Mainboard Lantai 3 | L3-AI-03 | Analog Input 3 | 3.12 | V |
| 12676 | 06/09/2026 | 18:30:00 | MB-L3-01Mainboard Lantai 3 | L3-SHT-02-RH | SHT20 2 Humidity | 42.00 | %RH |
| 12677 | 06/09/2026 | 18:30:00 | MB-L3-01Mainboard Lantai 3 | L3-SHT-02-T | SHT20 2 Temperature | 29.80 | °C |
| 12678 | 06/09/2026 | 18:30:00 | MB-L3-01Mainboard Lantai 3 | L3-AI-04 | Analog Input 4 | 3.12 | V |
| 12679 | 06/09/2026 | 18:30:00 | MB-L3-01Mainboard Lantai 3 | L3-SHT-01-RH | SHT20 1 Humidity | 42.60 | %RH |
| 12680 | 06/09/2026 | 18:30:00 | MB-L3-01Mainboard Lantai 3 | L3-RAD-01 | Radiation 1 | 1.00 | W/m² |
| 12681 | 06/09/2026 | 18:30:00 | MB-L3-01Mainboard Lantai 3 | L3-AI-05 | Analog Input 5 | 3.12 | V |
| 12682 | 06/09/2026 | 18:30:00 | MB-L3-01Mainboard Lantai 3 | L3-SHT-03-T | SHT20 3 Temperature | 29.70 | °C |
| 12683 | 06/09/2026 | 18:30:00 | MB-L3-01Mainboard Lantai 3 | L3-LUX-03 | Illuminance / LUX 3 | 733.80 | lux |
| 12684 | 06/09/2026 | 18:30:00 | MB-L3-01Mainboard Lantai 3 | L3-AI-06 | Analog Input 6 | 3.12 | V |
| 12685 | 06/09/2026 | 18:30:00 | MB-L3-01Mainboard Lantai 3 | L3-RAD-02 | Radiation 2 | 1.00 | W/m² |
| 12686 | 06/09/2026 | 18:30:00 | MB-L3-01Mainboard Lantai 3 | L3-LUX-05 | Illuminance / LUX 5 | 390.60 | lux |
| 12687 | 06/09/2026 | 18:30:00 | MB-L3-01Mainboard Lantai 3 | L3-SHT-03-RH | SHT20 3 Humidity | 42.30 | %RH |
| 12688 | 06/09/2026 | 18:30:00 | MB-L3-01Mainboard Lantai 3 | L3-LUX-04 | Illuminance / LUX 4 | 585.80 | lux |
| 12689 | 06/09/2026 | 18:29:00 | MB-L3-01Mainboard Lantai 3 | L3-LUX-01 | Illuminance / LUX 1 | 503.10 | lux |
| 12690 | 06/09/2026 | 18:29:00 | MB-L3-01Mainboard Lantai 3 | L3-AI-01 | Analog Input 1 | 3.12 | V |
| 12691 | 06/09/2026 | 18:29:00 | MB-L3-01Mainboard Lantai 3 | L3-LUX-06 | Illuminance / LUX 6 | 539.90 | lux |
| 12692 | 06/09/2026 | 18:29:00 | MB-L3-01Mainboard Lantai 3 | L3-AI-02 | Analog Input 2 | 3.12 | V |
| 12693 | 06/09/2026 | 18:29:00 | MB-L3-01Mainboard Lantai 3 | L3-AI-03 | Analog Input 3 | 3.12 | V |
| 12694 | 06/09/2026 | 18:29:00 | MB-L3-01Mainboard Lantai 3 | L3-SHT-02-RH | SHT20 2 Humidity | 42.10 | %RH |
| 12695 | 06/09/2026 | 18:29:00 | MB-L3-01Mainboard Lantai 3 | L3-SHT-02-T | SHT20 2 Temperature | 29.70 | °C |
| 12696 | 06/09/2026 | 18:29:00 | MB-L3-01Mainboard Lantai 3 | L3-AI-04 | Analog Input 4 | 3.12 | V |
| 12697 | 06/09/2026 | 18:29:00 | MB-L3-01Mainboard Lantai 3 | L3-SHT-01-RH | SHT20 1 Humidity | 42.70 | %RH |
| 12698 | 06/09/2026 | 18:29:00 | MB-L3-01Mainboard Lantai 3 | L3-RAD-01 | Radiation 1 | 1.00 | W/m² |
| 12699 | 06/09/2026 | 18:29:00 | MB-L3-01Mainboard Lantai 3 | L3-AI-05 | Analog Input 5 | 3.12 | V |
| 12700 | 06/09/2026 | 18:29:00 | MB-L3-01Mainboard Lantai 3 | L3-SHT-03-T | SHT20 3 Temperature | 29.80 | °C |
Menampilkan maksimal 100 data per halaman